sensor_id;sensor_type;location;lat;lon;timestamp;pressure;altitude;pressure_sealevel;temperature;humidity
45541;BME280;31265;49.680;8.608;2023-04-01T00:01:40;98985.84;;;9.50;100.00
45541;BME280;31265;49.680;8.608;2023-04-01T00:04:09;98989.03;;;9.56;100.00
45541;BME280;31265;49.680;8.608;2023-04-01T00:06:38;98991.47;;;9.71;100.00
45541;BME280;31265;49.680;8.608;2023-04-01T00:09:11;98990.56;;;9.78;100.00
45541;BME280;31265;49.680;8.608;2023-04-01T00:11:46;98984.41;;;9.89;100.00
45541;BME280;31265;49.680;8.608;2023-04-01T00:14:15;98991.94;;;9.99;100.00
45541;BME280;31265;49.680;8.608;2023-04-01T00:16:43;98987.19;;;10.11;100.00
45541;BME280;31265;49.680;8.608;2023-04-01T00:19:13;98982.47;;;10.23;100.00
45541;BME280;31265;49.680;8.608;2023-04-01T00:21:43;98993.56;;;10.23;100.00
45541;BME280;31265;49.680;8.608;2023-04-01T00:24:15;98984.22;;;10.28;100.00
45541;BME280;31265;49.680;8.608;2023-04-01T00:26:44;98997.38;;;10.18;100.00
45541;BME280;31265;49.680;8.608;2023-04-01T00:29:16;98988.28;;;10.27;100.00
45541;BME280;31265;49.680;8.608;2023-04-01T00:31:45;98983.06;;;10.22;100.00
45541;BME280;31265;49.680;8.608;2023-04-01T00:34:15;98995.59;;;10.23;100.00
45541;BME280;31265;49.680;8.608;2023-04-01T00:36:44;98988.19;;;10.16;100.00
45541;BME280;31265;49.680;8.608;2023-04-01T00:39:17;98991.56;;;10.14;100.00
45541;BME280;31265;49.680;8.608;2023-04-01T00:41:46;98988.75;;;10.24;100.00
45541;BME280;31265;49.680;8.608;2023-04-01T00:44:19;98989.25;;;10.10;100.00
45541;BME280;31265;49.680;8.608;2023-04-01T00:46:51;98984.31;;;10.09;100.00
45541;BME280;31265;49.680;8.608;2023-04-01T00:49:26;98987.19;;;10.11;100.00
45541;BME280;31265;49.680;8.608;2023-04-01T00:51:59;98985.34;;;10.04;100.00
45541;BME280;31265;49.680;8.608;2023-04-01T00:54:29;98995.88;;;9.96;100.00
45541;BME280;31265;49.680;8.608;2023-04-01T00:57:05;98984.22;;;9.97;100.00
45541;BME280;31265;49.680;8.608;2023-04-01T00:59:38;98986.56;;;9.91;100.00
45541;BME280;31265;49.680;8.608;2023-04-01T01:02:11;98989.94;;;9.89;100.00
45541;BME280;31265;49.680;8.608;2023-04-01T01:04:41;98988.22;;;9.84;100.00
45541;BME280;31265;49.680;8.608;2023-04-01T01:07:17;98976.28;;;9.82;100.00
45541;BME280;31265;49.680;8.608;2023-04-01T01:09:53;98976.56;;;9.76;100.00
45541;BME280;31265;49.680;8.608;2023-04-01T01:12:29;98972.94;;;9.74;100.00
45541;BME280;31265;49.680;8.608;2023-04-01T01:15:09;98971.63;;;9.75;100.00
45541;BME280;31265;49.680;8.608;2023-04-01T01:17:49;98967.84;;;9.70;100.00
45541;BME280;31265;49.680;8.608;2023-04-01T01:20:49;98967.84;;;9.70;100.00
45541;BME280;31265;49.680;8.608;2023-04-01T01:26:58;98959.13;;;9.64;100.00
45541;BME280;31265;49.680;8.608;2023-04-01T01:33:06;98953.75;;;9.56;100.00
45541;BME280;31265;49.680;8.608;2023-04-01T01:35:46;98959.28;;;9.56;100.00
45541;BME280;31265;49.680;8.608;2023-04-01T01:38:21;98954.88;;;9.73;100.00
45541;BME280;31265;49.680;8.608;2023-04-01T01:41:01;98958.38;;;9.73;100.00
45541;BME280;31265;49.680;8.608;2023-04-01T01:43:36;98939.25;;;9.77;100.00
45541;BME280;31265;49.680;8.608;2023-04-01T01:46:09;98942.25;;;9.60;100.00
45541;BME280;31265;49.680;8.608;2023-04-01T01:48:42;98941.81;;;9.54;100.00
45541;BME280;31265;49.680;8.608;2023-04-01T01:51:21;98937.00;;;9.54;100.00
45541;BME280;31265;49.680;8.608;2023-04-01T01:53:51;98943.41;;;9.57;100.00
45541;BME280;31265;49.680;8.608;2023-04-01T01:56:21;98936.78;;;9.72;100.00
45541;BME280;31265;49.680;8.608;2023-04-01T01:58:53;98933.53;;;9.85;100.00
45541;BME280;31265;49.680;8.608;2023-04-01T02:01:25;98939.25;;;9.77;100.00
45541;BME280;31265;49.680;8.608;2023-04-01T02:03:59;98927.53;;;9.88;100.00
45541;BME280;31265;49.680;8.608;2023-04-01T02:06:32;98932.16;;;9.96;100.00
45541;BME280;31265;49.680;8.608;2023-04-01T02:09:04;98936.69;;;9.91;100.00
45541;BME280;31265;49.680;8.608;2023-04-01T02:11:36;98943.53;;;10.00;100.00
45541;BME280;31265;49.680;8.608;2023-04-01T02:14:10;98936.91;;;10.05;100.00
45541;BME280;31265;49.680;8.608;2023-04-01T02:16:47;98936.06;;;10.02;100.00
45541;BME280;31265;49.680;8.608;2023-04-01T02:19:18;98934.59;;;10.01;100.00
45541;BME280;31265;49.680;8.608;2023-04-01T02:21:57;98926.75;;;9.98;100.00
45541;BME280;31265;49.680;8.608;2023-04-01T02:24:30;98936.19;;;10.04;100.00
45541;BME280;31265;49.680;8.608;2023-04-01T02:26:59;98934.53;;;10.11;100.00
45541;BME280;31265;49.680;8.608;2023-04-01T02:29:31;98935.78;;;9.98;100.00
45541;BME280;31265;49.680;8.608;2023-04-01T02:32:07;98936.84;;;9.93;100.00
45541;BME280;31265;49.680;8.608;2023-04-01T02:34:37;98943.97;;;9.96;100.00
45541;BME280;31265;49.680;8.608;2023-04-01T02:37:07;98947.38;;;9.85;100.00
45541;BME280;31265;49.680;8.608;2023-04-01T02:39:37;98948.09;;;9.85;100.00
45541;BME280;31265;49.680;8.608;2023-04-01T02:42:08;98957.69;;;9.94;100.00
45541;BME280;31265;49.680;8.608;2023-04-01T02:44:37;98952.47;;;9.88;100.00
45541;BME280;31265;49.680;8.608;2023-04-01T02:47:05;98947.72;;;9.79;100.00
45541;BME280;31265;49.680;8.608;2023-04-01T02:49:34;98959.94;;;9.76;100.00
45541;BME280;31265;49.680;8.608;2023-04-01T02:52:02;98950.59;;;9.81;100.00
45541;BME280;31265;49.680;8.608;2023-04-01T02:54:31;98954.41;;;9.76;100.00
45541;BME280;31265;49.680;8.608;2023-04-01T02:57:00;98952.81;;;9.73;100.00
45541;BME280;31265;49.680;8.608;2023-04-01T02:59:28;98951.25;;;9.70;100.00
45541;BME280;31265;49.680;8.608;2023-04-01T03:01:58;98944.66;;;9.75;100.00
45541;BME280;31265;49.680;8.608;2023-04-01T03:04:26;98940.59;;;9.66;100.00
45541;BME280;31265;49.680;8.608;2023-04-01T03:06:55;98939.88;;;9.66;100.00
45541;BME280;31265;49.680;8.608;2023-04-01T03:09:23;98936.06;;;9.71;100.00
45541;BME280;31265;49.680;8.608;2023-04-01T03:11:55;98931.72;;;9.68;100.00
45541;BME280;31265;49.680;8.608;2023-04-01T03:14:25;98938.97;;;9.73;100.00
45541;BME280;31265;49.680;8.608;2023-04-01T03:16:54;98944.28;;;9.59;100.00
45541;BME280;31265;49.680;8.608;2023-04-01T03:19:24;98947.22;;;9.52;100.00
45541;BME280;31265;49.680;8.608;2023-04-01T03:21:53;98946.16;;;9.57;100.00
45541;BME280;31265;49.680;8.608;2023-04-01T03:24:21;98958.56;;;9.56;100.00
45541;BME280;31265;49.680;8.608;2023-04-01T03:26:50;98949.25;;;9.51;100.00
45541;BME280;31265;49.680;8.608;2023-04-01T03:29:20;98943.16;;;9.53;100.00
45541;BME280;31265;49.680;8.608;2023-04-01T03:31:49;98945.41;;;9.66;100.00
45541;BME280;31265;49.680;8.608;2023-04-01T03:34:20;98948.50;;;9.60;100.00
45541;BME280;31265;49.680;8.608;2023-04-01T03:36:49;98942.66;;;9.66;100.00
45541;BME280;31265;49.680;8.608;2023-04-01T03:39:18;98958.66;;;9.77;100.00
45541;BME280;31265;49.680;8.608;2023-04-01T03:41:47;98949.91;;;9.71;100.00
45541;BME280;31265;49.680;8.608;2023-04-01T03:44:15;98954.72;;;9.71;100.00
45541;BME280;31265;49.680;8.608;2023-04-01T03:46:49;98951.50;;;9.74;100.00
45541;BME280;31265;49.680;8.608;2023-04-01T03:49:19;98951.69;;;9.66;100.00
45541;BME280;31265;49.680;8.608;2023-04-01T03:51:48;98952.44;;;9.67;100.00
45541;BME280;31265;49.680;8.608;2023-04-01T03:54:19;98955.94;;;9.58;100.00
45541;BME280;31265;49.680;8.608;2023-04-01T03:56:49;98964.47;;;9.72;100.00
45541;BME280;31265;49.680;8.608;2023-04-01T03:59:19;98960.03;;;9.57;100.00
45541;BME280;31265;49.680;8.608;2023-04-01T04:01:50;98952.91;;;9.54;100.00
45541;BME280;31265;49.680;8.608;2023-04-01T04:04:18;98955.50;;;9.61;100.00
45541;BME280;31265;49.680;8.608;2023-04-01T04:06:47;98950.59;;;9.50;100.00
45541;BME280;31265;49.680;8.608;2023-04-01T04:09:19;98949.25;;;9.51;100.00
45541;BME280;31265;49.680;8.608;2023-04-01T04:11:53;98943.56;;;9.49;100.00
45541;BME280;31265;49.680;8.608;2023-04-01T04:14:22;98947.69;;;9.48;100.00
45541;BME280;31265;49.680;8.608;2023-04-01T04:16:55;98948.41;;;9.48;100.00
45541;BME280;31265;49.680;8.608;2023-04-01T04:19:23;98949.00;;;9.47;100.00
45541;BME280;31265;49.680;8.608;2023-04-01T04:21:52;98947.94;;;9.62;100.00
45541;BME280;31265;49.680;8.608;2023-04-01T04:24:23;98947.94;;;9.62;100.00
45541;BME280;31265;49.680;8.608;2023-04-01T04:27:03;98946.94;;;9.47;100.00
45541;BME280;31265;49.680;8.608;2023-04-01T04:29:31;98937.31;;;9.48;100.00
45541;BME280;31265;49.680;8.608;2023-04-01T04:32:02;98943.41;;;9.57;100.00
45541;BME280;31265;49.680;8.608;2023-04-01T04:34:31;98936.47;;;9.46;100.00
45541;BME280;31265;49.680;8.608;2023-04-01T04:37:01;98940.63;;;9.57;100.00
45541;BME280;31265;49.680;8.608;2023-04-01T04:39:33;98945.34;;;9.44;100.00
45541;BME280;31265;49.680;8.608;2023-04-01T04:42:03;98934.00;;;9.40;100.00
45541;BME280;31265;49.680;8.608;2023-04-01T04:44:31;98938.78;;;9.50;100.00
45541;BME280;31265;49.680;8.608;2023-04-01T04:47:03;98937.59;;;9.53;100.00
45541;BME280;31265;49.680;8.608;2023-04-01T04:49:32;98937.47;;;9.51;100.00
45541;BME280;31265;49.680;8.608;2023-04-01T04:52:06;98945.19;;;9.52;100.00
45541;BME280;31265;49.680;8.608;2023-04-01T04:54:34;98933.09;;;9.47;100.00
45541;BME280;31265;49.680;8.608;2023-04-01T04:57:03;98939.47;;;9.60;100.00
45541;BME280;31265;49.680;8.608;2023-04-01T04:59:38;98940.63;;;9.57;100.00
45541;BME280;31265;49.680;8.608;2023-04-01T05:02:26;98943.72;;;9.51;100.00
45541;BME280;31265;49.680;8.608;2023-04-01T05:04:54;98940.06;;;9.58;100.00
45541;BME280;31265;49.680;8.608;2023-04-01T05:07:26;98937.47;;;9.51;100.00
45541;BME280;31265;49.680;8.608;2023-04-01T05:09:55;98943.56;;;9.49;100.00
45541;BME280;31265;49.680;8.608;2023-04-01T05:12:24;98938.50;;;9.45;100.00
45541;BME280;31265;49.680;8.608;2023-04-01T05:15:00;98944.91;;;9.48;100.00
45541;BME280;31265;49.680;8.608;2023-04-01T05:17:32;98941.97;;;9.56;100.00
45541;BME280;31265;49.680;8.608;2023-04-01T05:20:04;98938.78;;;9.50;100.00
45541;BME280;31265;49.680;8.608;2023-04-01T05:22:34;98937.75;;;9.55;100.00
45541;BME280;31265;49.680;8.608;2023-04-01T05:25:03;98934.69;;;9.51;100.00
45541;BME280;31265;49.680;8.608;2023-04-01T05:27:36;98930.88;;;9.56;100.00
45541;BME280;31265;49.680;8.608;2023-04-01T05:30:07;98935.38;;;9.61;100.00
45541;BME280;31265;49.680;8.608;2023-04-01T05:32:56;98931.19;;;9.81;100.00
45541;BME280;31265;49.680;8.608;2023-04-01T05:35:25;98929.66;;;9.68;100.00
45541;BME280;31265;49.680;8.608;2023-04-01T05:37:53;98931.44;;;9.64;100.00
45541;BME280;31265;49.680;8.608;2023-04-01T05:40:22;98923.25;;;9.66;100.00
45541;BME280;31265;49.680;8.608;2023-04-01T05:42:53;98926.44;;;9.72;100.00
45541;BME280;31265;49.680;8.608;2023-04-01T05:45:22;98928.03;;;9.75;100.00
45541;BME280;31265;49.680;8.608;2023-04-01T05:48:21;98929.56;;;9.57;100.00
45541;BME280;31265;49.680;8.608;2023-04-01T05:50:50;98924.72;;;9.67;100.00
45541;BME280;31265;49.680;8.608;2023-04-01T05:53:19;98927.53;;;9.57;100.00
45541;BME280;31265;49.680;8.608;2023-04-01T05:55:49;98923.75;;;9.53;100.00
45541;BME280;31265;49.680;8.608;2023-04-01T05:58:20;98926.03;;;9.66;100.00
45541;BME280;31265;49.680;8.608;2023-04-01T06:00:51;98913.38;;;9.63;100.00
45541;BME280;31265;49.680;8.608;2023-04-01T06:03:37;98919.53;;;9.52;100.00
45541;BME280;31265;49.680;8.608;2023-04-01T06:06:13;98926.78;;;9.57;100.00
45541;BME280;31265;49.680;8.608;2023-04-01T06:08:43;98910.91;;;9.57;100.00
45541;BME280;31265;49.680;8.608;2023-04-01T06:11:22;98920.53;;;9.56;100.00
45541;BME280;31265;49.680;8.608;2023-04-01T06:14:16;98912.50;;;9.60;100.00
45541;BME280;31265;49.680;8.608;2023-04-01T06:17:07;98922.41;;;9.63;100.00
45541;BME280;31265;49.680;8.608;2023-04-01T06:19:47;98928.13;;;9.56;100.00
45541;BME280;31265;49.680;8.608;2023-04-01T06:22:40;98929.44;;;9.55;100.00
45541;BME280;31265;49.680;8.608;2023-04-01T06:25:25;98922.94;;;9.72;100.00
45541;BME280;31265;49.680;8.608;2023-04-01T06:28:27;98914.63;;;9.72;100.00
45541;BME280;31265;49.680;8.608;2023-04-01T06:31:03;98916.84;;;9.63;100.00
45541;BME280;31265;49.680;8.608;2023-04-01T06:33:49;98917.00;;;9.65;100.00
45541;BME280;31265;49.680;8.608;2023-04-01T06:36:32;98913.38;;;9.63;100.00
45541;BME280;31265;49.680;8.608;2023-04-01T06:39:21;98912.72;;;9.74;100.00
45541;BME280;31265;49.680;8.608;2023-04-01T06:45:14;98912.09;;;9.85;100.00
45541;BME280;31265;49.680;8.608;2023-04-01T06:48:15;98918.75;;;9.61;100.00
45541;BME280;31265;49.680;8.608;2023-04-01T06:51:16;98918.91;;;9.63;100.00
45541;BME280;31265;49.680;8.608;2023-04-01T06:54:10;98914.69;;;9.62;100.00
45541;BME280;31265;49.680;8.608;2023-04-01T06:57:20;98912.94;;;9.57;100.00
45541;BME280;31265;49.680;8.608;2023-04-01T06:59:51;98907.72;;;9.51;100.00
45541;BME280;31265;49.680;8.608;2023-04-01T07:02:32;98911.97;;;9.52;100.00
45541;BME280;31265;49.680;8.608;2023-04-01T07:05:08;98915.72;;;9.57;100.00
45541;BME280;31265;49.680;8.608;2023-04-01T07:07:48;98919.47;;;9.61;100.00
45541;BME280;31265;49.680;8.608;2023-04-01T07:10:28;98927.53;;;9.88;100.00
45541;BME280;31265;49.680;8.608;2023-04-01T07:13:21;98919.06;;;9.86;100.00
45541;BME280;31265;49.680;8.608;2023-04-01T07:16:12;98923.63;;;9.82;100.00
45541;BME280;31265;49.680;8.608;2023-04-01T07:18:50;98927.28;;;9.84;100.00
45541;BME280;31265;49.680;8.608;2023-04-01T07:21:39;98927.84;;;9.83;100.00
45541;BME280;31265;49.680;8.608;2023-04-01T07:24:21;98936.56;;;9.89;100.00
45541;BME280;31265;49.680;8.608;2023-04-01T07:27:12;98931.75;;;9.89;100.00
45541;BME280;31265;49.680;8.608;2023-04-01T07:29:58;98930.31;;;10.10;100.00
45541;BME280;31265;49.680;8.608;2023-04-01T07:32:35;98929.06;;;10.01;100.00
45541;BME280;31265;49.680;8.608;2023-04-01T07:35:17;98928.38;;;9.91;100.00
45541;BME280;31265;49.680;8.608;2023-04-01T07:38:00;98930.16;;;9.86;100.00
45541;BME280;31265;49.680;8.608;2023-04-01T07:40:40;98924.84;;;10.00;100.00
45541;BME280;31265;49.680;8.608;2023-04-01T07:43:26;98934.09;;;10.15;100.00
45541;BME280;31265;49.680;8.608;2023-04-01T07:46:22;98933.75;;;10.20;100.00
45541;BME280;31265;49.680;8.608;2023-04-01T07:49:01;98929.75;;;10.33;100.00
45541;BME280;31265;49.680;8.608;2023-04-01T07:51:37;98940.56;;;10.50;100.00
45541;BME280;31265;49.680;8.608;2023-04-01T07:54:18;98928.31;;;10.32;100.00
45541;BME280;31265;49.680;8.608;2023-04-01T07:56:54;98939.47;;;10.44;100.00
45541;BME280;31265;49.680;8.608;2023-04-01T07:59:47;98942.75;;;10.30;100.00
45541;BME280;31265;49.680;8.608;2023-04-01T08:02:36;98937.94;;;10.31;100.00
45541;BME280;31265;49.680;8.608;2023-04-01T08:05:19;98943.75;;;10.35;100.00
45541;BME280;31265;49.680;8.608;2023-04-01T08:07:59;98937.88;;;10.41;100.00
45541;BME280;31265;49.680;8.608;2023-04-01T08:10:57;98945.03;;;10.44;100.00
45541;BME280;31265;49.680;8.608;2023-04-01T08:13:53;98935.69;;;10.18;100.00
45541;BME280;31265;49.680;8.608;2023-04-01T08:16:53;98947.19;;;10.24;100.00
45541;BME280;31265;49.680;8.608;2023-04-01T08:19:49;98947.28;;;10.26;100.00
45541;BME280;31265;49.680;8.608;2023-04-01T08:22:32;98950.59;;;10.12;100.00
45541;BME280;31265;49.680;8.608;2023-04-01T08:25:06;98952.03;;;10.13;100.00
45541;BME280;31265;49.680;8.608;2023-04-01T08:27:41;98948.72;;;10.05;100.00
45541;BME280;31265;49.680;8.608;2023-04-01T08:30:18;98955.03;;;9.96;100.00
45541;BME280;31265;49.680;8.608;2023-04-01T08:32:53;98952.16;;;9.94;100.00
45541;BME280;31265;49.680;8.608;2023-04-01T08:35:28;98951.41;;;9.94;100.00
45541;BME280;31265;49.680;8.608;2023-04-01T08:38:06;98945.50;;;10.09;100.00
45541;BME280;31265;49.680;8.608;2023-04-01T08:40:53;98952.41;;;9.98;100.00
45541;BME280;31265;49.680;8.608;2023-04-01T08:46:36;98952.59;;;9.90;100.00
45541;BME280;31265;49.680;8.608;2023-04-01T08:49:23;98957.03;;;10.05;100.00
45541;BME280;31265;49.680;8.608;2023-04-01T08:52:11;98957.75;;;10.06;100.00
45541;BME280;31265;49.680;8.608;2023-04-01T08:55:16;98956.47;;;10.07;100.00
45541;BME280;31265;49.680;8.608;2023-04-01T09:01:49;98962.06;;;10.19;100.00
45541;BME280;31265;49.680;8.608;2023-04-01T09:07:47;98964.81;;;10.28;100.00
45541;BME280;31265;49.680;8.608;2023-04-01T09:10:40;98962.16;;;10.30;100.00
45541;BME280;31265;49.680;8.608;2023-04-01T09:14:22;98967.00;;;10.30;100.00
45541;BME280;31265;49.680;8.608;2023-04-01T09:17:35;98961.75;;;10.24;100.00
45541;BME280;31265;49.680;8.608;2023-04-01T09:20:32;98959.94;;;10.39;100.00
45541;BME280;31265;49.680;8.608;2023-04-01T09:23:25;98968.66;;;10.45;100.00
45541;BME280;31265;49.680;8.608;2023-04-01T09:29:10;98972.22;;;10.26;100.00
45541;BME280;31265;49.680;8.608;2023-04-01T09:32:10;98974.44;;;10.27;100.00
45541;BME280;31265;49.680;8.608;2023-04-01T09:34:53;98978.03;;;10.40;100.00
45541;BME280;31265;49.680;8.608;2023-04-01T09:40:47;98981.53;;;10.62;100.00
45541;BME280;31265;49.680;8.608;2023-04-01T09:44:01;98981.47;;;10.50;100.00
45541;BME280;31265;49.680;8.608;2023-04-01T09:46:44;98992.56;;;10.50;100.00
45541;BME280;31265;49.680;8.608;2023-04-01T09:49:35;98998.63;;;10.37;100.00
45541;BME280;31265;49.680;8.608;2023-04-01T09:52:23;98990.91;;;10.35;100.00
45541;BME280;31265;49.680;8.608;2023-04-01T09:55:21;98995.03;;;10.24;100.00
45541;BME280;31265;49.680;8.608;2023-04-01T09:58:32;98993.28;;;10.29;100.00
45541;BME280;31265;49.680;8.608;2023-04-01T10:05:11;98997.19;;;10.26;100.00
45541;BME280;31265;49.680;8.608;2023-04-01T10:08:14;98996.47;;;10.25;100.00
45541;BME280;31265;49.680;8.608;2023-04-01T10:11:10;99000.84;;;10.28;100.00
45541;BME280;31265;49.680;8.608;2023-04-01T10:17:27;99003.47;;;10.26;100.00
45541;BME280;31265;49.680;8.608;2023-04-01T10:20:14;99004.09;;;10.15;100.00
45541;BME280;31265;49.680;8.608;2023-04-01T10:23:19;99001.34;;;10.15;100.00
45541;BME280;31265;49.680;8.608;2023-04-01T10:26:16;98999.69;;;10.31;100.00
45541;BME280;31265;49.680;8.608;2023-04-01T10:29:20;98997.34;;;10.28;100.00
45541;BME280;31265;49.680;8.608;2023-04-01T10:32:26;99000.53;;;10.34;100.00
45541;BME280;31265;49.680;8.608;2023-04-01T10:41:57;99006.16;;;10.67;100.00
45541;BME280;31265;49.680;8.608;2023-04-01T10:45:29;98998.88;;;10.84;100.00
45541;BME280;31265;49.680;8.608;2023-04-01T10:48:42;99007.13;;;10.93;100.00
45541;BME280;31265;49.680;8.608;2023-04-01T10:51:29;99010.00;;;11.17;100.00
45541;BME280;31265;49.680;8.608;2023-04-01T10:54:17;99007.13;;;11.27;100.00
45541;BME280;31265;49.680;8.608;2023-04-01T10:57:24;99003.31;;;11.44;100.00
45541;BME280;31265;49.680;8.608;2023-04-01T11:01:05;99009.84;;;11.48;100.00
45541;BME280;31265;49.680;8.608;2023-04-01T11:04:33;99013.72;;;11.67;100.00
45541;BME280;31265;49.680;8.608;2023-04-01T11:08:15;99002.38;;;11.62;100.00
45541;BME280;31265;49.680;8.608;2023-04-01T11:14:18;99019.88;;;11.53;100.00
45541;BME280;31265;49.680;8.608;2023-04-01T11:17:21;99023.59;;;11.46;100.00
45541;BME280;31265;49.680;8.608;2023-04-01T11:20:39;99016.38;;;11.53;100.00
45541;BME280;31265;49.680;8.608;2023-04-01T11:23:29;99020.00;;;11.55;100.00
45541;BME280;31265;49.680;8.608;2023-04-01T11:26:09;99029.41;;;11.50;100.00
45541;BME280;31265;49.680;8.608;2023-04-01T11:29:23;99018.63;;;11.33;100.00
45541;BME280;31265;49.680;8.608;2023-04-01T11:32:15;99024.53;;;11.39;100.00
45541;BME280;31265;49.680;8.608;2023-04-01T11:34:56;99016.09;;;11.37;100.00
45541;BME280;31265;49.680;8.608;2023-04-01T11:37:36;99026.13;;;11.42;100.00
45541;BME280;31265;49.680;8.608;2023-04-01T11:40:45;99025.53;;;11.44;100.00
45541;BME280;31265;49.680;8.608;2023-04-01T11:43:43;99017.06;;;11.41;100.00
45541;BME280;31265;49.680;8.608;2023-04-01T11:46:39;99020.19;;;11.36;100.00
45541;BME280;31265;49.680;8.608;2023-04-01T11:49:25;99026.13;;;11.42;100.00
45541;BME280;31265;49.680;8.608;2023-04-01T11:55:31;99026.72;;;11.40;100.00
45541;BME280;31265;49.680;8.608;2023-04-01T11:58:28;99031.56;;;11.52;100.00
45541;BME280;31265;49.680;8.608;2023-04-01T12:01:10;99020.97;;;11.72;100.00
45541;BME280;31265;49.680;8.608;2023-04-01T12:03:52;99028.97;;;11.66;100.00
45541;BME280;31265;49.680;8.608;2023-04-01T12:06:30;99040.06;;;11.66;100.00
45541;BME280;31265;49.680;8.608;2023-04-01T12:09:09;99046.84;;;11.62;100.00
45541;BME280;31265;49.680;8.608;2023-04-01T12:11:51;99053.22;;;11.53;100.00
45541;BME280;31265;49.680;8.608;2023-04-01T12:14:30;99051.63;;;11.50;100.00
45541;BME280;31265;49.680;8.608;2023-04-01T12:17:08;99055.50;;;11.57;100.00
45541;BME280;31265;49.680;8.608;2023-04-01T12:19:43;99057.09;;;11.60;100.00
45541;BME280;31265;49.680;8.608;2023-04-01T12:22:31;99057.56;;;11.56;100.00
45541;BME280;31265;49.680;8.608;2023-04-01T12:25:27;99061.09;;;11.69;100.00
45541;BME280;31265;49.680;8.608;2023-04-01T12:28:10;99061.13;;;11.80;100.00
45541;BME280;31265;49.680;8.608;2023-04-01T12:31:01;99047.09;;;11.78;100.00
45541;BME280;31265;49.680;8.608;2023-04-01T12:33:57;99052.97;;;11.94;100.00
45541;BME280;31265;49.680;8.608;2023-04-01T12:36:38;99050.84;;;11.83;100.00
45541;BME280;31265;49.680;8.608;2023-04-01T12:39:22;99054.97;;;11.82;100.00
45541;BME280;31265;49.680;8.608;2023-04-01T12:42:07;99056.69;;;11.87;100.00
45541;BME280;31265;49.680;8.608;2023-04-01T12:44:53;99053.41;;;11.91;100.00
45541;BME280;31265;49.680;8.608;2023-04-01T12:50:44;99051.69;;;11.86;100.00
45541;BME280;31265;49.680;8.608;2023-04-01T12:53:33;99051.63;;;11.95;100.00
45541;BME280;31265;49.680;8.608;2023-04-01T12:56:09;99051.13;;;11.87;100.00
45541;BME280;31265;49.680;8.608;2023-04-01T12:59:01;99056.53;;;11.85;100.00
45541;BME280;31265;49.680;8.608;2023-04-01T13:01:52;99047.81;;;11.79;100.00
45541;BME280;31265;49.680;8.608;2023-04-01T13:04:48;99055.53;;;11.69;100.00
45541;BME280;31265;49.680;8.608;2023-04-01T13:07:28;99058.28;;;11.57;100.00
45541;BME280;31265;49.680;8.608;2023-04-01T13:10:04;99060.72;;;11.74;100.00
45541;BME280;31265;49.680;8.608;2023-04-01T13:12:43;99060.81;;;11.65;100.00
45541;BME280;31265;49.680;8.608;2023-04-01T13:15:24;99062.03;;;11.61;100.00
45541;BME280;31265;49.680;8.608;2023-04-01T13:18:00;99077.72;;;11.57;100.00
45541;BME280;31265;49.680;8.608;2023-04-01T13:20:43;99074.34;;;11.58;100.00
45541;BME280;31265;49.680;8.608;2023-04-01T13:23:20;99069.06;;;11.62;100.00
45541;BME280;31265;49.680;8.608;2023-04-01T13:26:00;99071.44;;;11.56;100.00
45541;BME280;31265;49.680;8.608;2023-04-01T13:28:47;99086.06;;;11.57;100.00
45541;BME280;31265;49.680;8.608;2023-04-01T13:31:36;99083.91;;;11.55;100.00
45541;BME280;31265;49.680;8.608;2023-04-01T13:34:18;99086.66;;;11.55;100.00
45541;BME280;31265;49.680;8.608;2023-04-01T13:36:58;99082.81;;;11.60;100.00
45541;BME280;31265;49.680;8.608;2023-04-01T13:39:39;99097.56;;;11.63;100.00
45541;BME280;31265;49.680;8.608;2023-04-01T13:42:19;99090.53;;;11.62;100.00
45541;BME280;31265;49.680;8.608;2023-04-01T13:44:57;99098.25;;;11.52;100.00
45541;BME280;31265;49.680;8.608;2023-04-01T13:47:47;99095.25;;;11.59;100.00
45541;BME280;31265;49.680;8.608;2023-04-01T13:50:50;99106.25;;;11.57;100.00
45541;BME280;31265;49.680;8.608;2023-04-01T13:53:32;99104.88;;;11.47;100.00
45541;BME280;31265;49.680;8.608;2023-04-01T13:56:14;99102.72;;;11.45;100.00
45541;BME280;31265;49.680;8.608;2023-04-01T14:01:36;99105.84;;;11.51;100.00
45541;BME280;31265;49.680;8.608;2023-04-01T14:04:22;99113.47;;;11.51;100.00
45541;BME280;31265;49.680;8.608;2023-04-01T14:07:08;99106.66;;;11.42;100.00
45541;BME280;31265;49.680;8.608;2023-04-01T14:12:40;99113.28;;;11.37;100.00
45541;BME280;31265;49.680;8.608;2023-04-01T14:15:29;99117.78;;;11.42;100.00
45541;BME280;31265;49.680;8.608;2023-04-01T14:18:22;99126.00;;;11.40;100.00
45541;BME280;31265;49.680;8.608;2023-04-01T14:21:14;99113.69;;;11.43;100.00
45541;BME280;31265;49.680;8.608;2023-04-01T14:24:32;99115.34;;;11.36;100.00
45541;BME280;31265;49.680;8.608;2023-04-01T14:27:21;99120.03;;;11.34;100.00
45541;BME280;31265;49.680;8.608;2023-04-01T14:30:20;99118.66;;;11.23;100.00
45541;BME280;31265;49.680;8.608;2023-04-01T14:33:00;99130.41;;;11.33;100.00
45541;BME280;31265;49.680;8.608;2023-04-01T14:35:37;99129.69;;;11.33;100.00
45541;BME280;31265;49.680;8.608;2023-04-01T14:38:24;99133.53;;;11.28;100.00
45541;BME280;31265;49.680;8.608;2023-04-01T14:41:00;99137.19;;;11.30;100.00
45541;BME280;31265;49.680;8.608;2023-04-01T14:44:23;99135.47;;;11.25;100.00
45541;BME280;31265;49.680;8.608;2023-04-01T14:47:25;99137.03;;;11.28;100.00
45541;BME280;31265;49.680;8.608;2023-04-01T14:50:05;99149.13;;;11.33;100.00
45541;BME280;31265;49.680;8.608;2023-04-01T14:52:36;99155.22;;;11.41;100.00
45541;BME280;31265;49.680;8.608;2023-04-01T14:55:20;99145.22;;;11.48;100.00
45541;BME280;31265;49.680;8.608;2023-04-01T14:58:09;99145.28;;;11.38;100.00
45541;BME280;31265;49.680;8.608;2023-04-01T15:00:51;99160.97;;;11.33;100.00
45541;BME280;31265;49.680;8.608;2023-04-01T15:03:28;99149.84;;;11.33;100.00
45541;BME280;31265;49.680;8.608;2023-04-01T15:06:17;99157.97;;;11.19;100.00